Airfield :
LOGIN :

Register | Disclaimer

   EN    FR    IT 

 










Legend :    VFR   Marginal VFR   IFR   Intensive IFR   Very Intensive IFR
Visi :
Ceiling :
>= 8 km
>= 3000ft
5 to 8 km
1000 to 3000 ft
1500m to 5 km
500 to 1000 ft
800 to 1500m
200 to 500 ft
< 800m
< 200 ft
Symbols :   Thunderstorms  Fog  Heavy snow  Heavy precipitations  Wind > 20 kt
SIGMETs :     Misc.  Thunderstorms  Icing  Turbulence  Mountain Waves  Volcanic Ashes






- Airport Elevation : 46 ft
- IATA code : PAF


LPMT - Montijo Air Base

CURRENT METAR :
  • 102300Z VRB01KT 6000 NSC 05/05 Q1027

EXPIRED METARs :
  • 102200Z VRB02KT 6000 NSC 08/08 Q1027
  • 102100Z VRB01KT 5000 BR NSC 07/07 Q1027

TAF TAF LPMT
Valid from the 11 at 00:00 until the 12 at 00:00 UTC


102307Z 1100/1124 VRB02KT 6000 SCT018
PROB40 1100/1103 1800 BR BKN006
BECMG 1103/1105 25008KT 5000 -DZRA SCT008 BKN016
TEMPO 1103/1108 2500 DZRA BR BKN006 BKN012
PROB30
TEMPO 1105/1107 2000 DZRA BR BKN004 BKN008
BECMG 1107/1109 35012KT 9999 NSW SCT016
TEMPO 1108/1117 35015G25KT
BECMG 1117/1120 34008KT



MET'MAP, your aeronautical weather chart ! - Copyright ORBIFLY December 2007 - Disclaimer

ORBIFLY MET'MAP TEAM :

Programming & Development : Alexandra Zaïnal
Concept & original design : Baudouin d'Aumeries
Assistance for programming : Marc-Olivier Méhu
Technical & hardware support : Manuel Goepfert

Contact : metmap@orbifly.com




SOURCES & CREDITS :

   NOAA